American Falls, ID (83211)

5:57 PM MST on February 05, 2016 (GMT -0700)
The Hood | | Change Station
CLOSE
Current Station
Personal Weather Station
Location: Rockland, ID
Elevation: 4560 ft
Nearby Weather Stations

Elev 4560 ft 42.57 °N, 112.88 °W | Updated 6 minutes ago

Mostly Cloudy
Mostly Cloudy
31.1 °F
Feels Like 27 °F
N
3.7
Wind Variable Wind from SSW

Today
High -- | Low -- °F
--% Chance of Precip.
Yesterday
High -- | Low -- °F
Precip. -- in
Pressure 30.65 in
Visibility 10.0 miles
Clouds Mostly Cloudy 2600 ft
Overcast 3700 ft
Windchill 27 °F
Dew Point 26 °F
Humidity 80%
Rainfall 0.00 in
Snow Depth Not available.
7:42 AM 5:49 PM
Waning Crescent, 8% visible
METAR KPIH 060053Z 02005KT 10SM BKN026 OVC037 M04/M06 A3051 RMK AO2 SLP378 T10441061
Pressure 30.65 in
Visibility 10.0 miles
Clouds Mostly Cloudy 2600 ft
Overcast 3700 ft
Windchill 27 °F
Dew Point 26 °F
Humidity 80%
Rainfall 0.00 in
Snow Depth Not available.
7:42 AM 5:49 PM
Waning Crescent, 8% visible
METAR KPIH 060053Z 02005KT 10SM BKN026 OVC037 M04/M06 A3051 RMK AO2 SLP378 T10441061

10-Day Weather Forecast

Almanac

Astronomy

Feb. 05, 2016 Rise Set
Actual Time
Civil Twilight
Nautical Twilight
Astronomical Twilight
Moon
Length of Visible Light
Length of Day
Tomorrow will be .
, % of the Moon is Illuminated

Today's Extremes

State Highs State Lows

Community

WunderPhotos

Upload Photos

1,890,900 photos uploaded!

WunderBlog® & News

Nearby

Air Quality

  Air Quality AQ Index Pollutant
Not available.

Snow Depth

Station Depth Elevation

Earthquake Activity

City Distance Mag. Time & Date
Minimum magnitude displayed is 2.5.

Coastal Water Temperatures

Place Temperature

Stations

Nearby Weather Stations

Station Location Temp. Windchill Dew Point Humidity Wind Precip. Elev Updated Type
                   

Watches & Warnings

There are currently no watches in effect.